createdAt,value
2023-12-11T00:00:43.774Z,96002.38
2023-12-11T00:03:12.150Z,96035.66
2023-12-11T00:05:41.091Z,96023.66
2023-12-11T00:08:10.886Z,96025.91
2023-12-11T00:10:39.138Z,96008.88
2023-12-11T00:13:07.384Z,95982.75
2023-12-11T00:15:37.918Z,95998.78
2023-12-11T00:18:07.127Z,96009.22
2023-12-11T00:20:35.976Z,96013.38
2023-12-11T00:23:04.259Z,96000.84
2023-12-11T00:25:34.421Z,95998.44
2023-12-11T00:28:02.793Z,96017.38
2023-12-11T00:30:31.194Z,96032.03
2023-12-11T00:32:59.606Z,96016.34
2023-12-11T00:35:27.903Z,96022.59
2023-12-11T00:37:56.126Z,96038.31
2023-12-11T00:40:24.300Z,96050.38
2023-12-11T00:42:54.105Z,96028.50
2023-12-11T00:45:22.567Z,96028.50
2023-12-11T00:47:50.942Z,96032.81
2023-12-11T00:50:19.396Z,95985.41
2023-12-11T00:52:47.590Z,95990.78
2023-12-11T00:55:15.880Z,95991.09
2023-12-11T00:57:44.379Z,95965.84
2023-12-11T01:00:15.482Z,95988.50
2023-12-11T01:02:43.956Z,95961.97
2023-12-11T01:05:12.220Z,95960.34
2023-12-11T01:07:40.519Z,95958.75
2023-12-11T01:10:11.066Z,95955.31
2023-12-11T01:12:39.331Z,96005.81
2023-12-11T01:15:09.045Z,95987.94
2023-12-11T01:17:40.889Z,95983.34
2023-12-11T01:20:10.926Z,95976.06
2023-12-11T01:22:39.323Z,95982.84
2023-12-11T01:25:10.314Z,95973.81
2023-12-11T01:27:38.796Z,95958.47
2023-12-11T01:30:09.170Z,95942.38
2023-12-11T01:32:38.853Z,95934.50
2023-12-11T01:35:07.848Z,95932.94
2023-12-11T01:37:36.044Z,95930.63
2023-12-11T01:40:06.454Z,95944.72
2023-12-11T01:42:35.177Z,95919.22
2023-12-11T01:45:03.483Z,95948.06
2023-12-11T01:47:33.218Z,95925.06
2023-12-11T01:50:03.528Z,95889.34
2023-12-11T01:52:31.931Z,95882.22
2023-12-11T01:55:00.347Z,95906.22
2023-12-11T01:57:29.219Z,95878.69
2023-12-11T01:59:58.572Z,95898.03
2023-12-11T02:02:27.194Z,95891.56
2023-12-11T02:04:55.948Z,95870.97
2023-12-11T02:07:25.825Z,95874.16
2023-12-11T02:09:54.062Z,95896.03
2023-12-11T02:12:22.402Z,95901.25
2023-12-11T02:14:50.573Z,95889.25
2023-12-11T02:17:18.854Z,95877.50
2023-12-11T02:19:47.168Z,95863.66
2023-12-11T02:22:16.421Z,95826.19
2023-12-11T02:24:51.261Z,95812.88
2023-12-11T02:27:21.885Z,95821.19
2023-12-11T02:29:51.611Z,95851.41
2023-12-11T02:32:19.847Z,95867.31
2023-12-11T02:34:49.243Z,95883.91
2023-12-11T02:37:17.847Z,95894.41
2023-12-11T02:39:48.092Z,95867.50
2023-12-11T02:42:16.428Z,95845.13
2023-12-11T02:44:46.285Z,95844.41
2023-12-11T02:47:14.604Z,95804.63
2023-12-11T02:49:42.943Z,95815.09
2023-12-11T02:52:11.259Z,95852.06
2023-12-11T02:54:39.474Z,95856.78
2023-12-11T02:57:07.696Z,95815.13
2023-12-11T02:59:35.894Z,95803.34
2023-12-11T03:02:06.016Z,95758.75
2023-12-11T03:04:34.407Z,95792.53
2023-12-11T03:07:02.730Z,95802.97
2023-12-11T03:09:30.983Z,95833.22
2023-12-11T03:11:59.176Z,95817.66
2023-12-11T03:14:27.333Z,95829.59
2023-12-11T03:16:55.586Z,95817.09
2023-12-11T03:19:26.197Z,95803.06
2023-12-11T03:21:57.119Z,95801.00
2023-12-11T03:24:26.179Z,95774.97
2023-12-11T03:26:54.372Z,95795.50
2023-12-11T03:29:22.700Z,95822.91
2023-12-11T03:31:50.913Z,95788.84
2023-12-11T03:34:19.288Z,95813.06
2023-12-11T03:36:49.155Z,95787.03
2023-12-11T03:39:17.630Z,95828.69
2023-12-11T03:41:46.931Z,95808.41
2023-12-11T03:44:15.100Z,95802.94
2023-12-11T03:46:43.220Z,95858.06
2023-12-11T03:49:11.687Z,95859.44
2023-12-11T03:51:40.012Z,95856.34
2023-12-11T03:54:09.832Z,95837.53
2023-12-11T03:56:38.220Z,95833.88
2023-12-11T03:59:06.613Z,95822.44
2023-12-11T04:01:34.944Z,95813.34
2023-12-11T04:04:04.091Z,95811.56
2023-12-11T04:06:32.536Z,95796.44
2023-12-11T04:09:01.052Z,95783.88
2023-12-11T04:11:30.775Z,95773.94
2023-12-11T04:13:59.048Z,95777.03
2023-12-11T04:16:28.094Z,95755.63
2023-12-11T04:18:59.522Z,95774.31
2023-12-11T04:21:29.201Z,95764.88
2023-12-11T04:23:57.453Z,95763.09
2023-12-11T04:26:25.744Z,95741.00
2023-12-11T04:28:55.377Z,95739.91
2023-12-11T04:31:24.756Z,95745.56
2023-12-11T04:33:53.186Z,95739.47
2023-12-11T04:36:21.490Z,95770.44
2023-12-11T04:38:49.722Z,95758.06
2023-12-11T04:41:18.129Z,95753.47
2023-12-11T04:43:46.361Z,95751.75
2023-12-11T04:46:15.992Z,95732.72
2023-12-11T04:48:44.363Z,95744.88
2023-12-11T04:51:12.808Z,95757.13
2023-12-11T04:53:40.994Z,95744.31
2023-12-11T04:56:10.476Z,95776.56
2023-12-11T04:58:38.715Z,95766.50
2023-12-11T05:01:07.203Z,95756.63
2023-12-11T05:03:37.057Z,95765.47
2023-12-11T05:06:06.267Z,95755.06
2023-12-11T05:08:34.461Z,95745.72
2023-12-11T05:11:02.656Z,95746.25
2023-12-11T05:13:30.850Z,95739.94
2023-12-11T05:15:59.465Z,95747.66
2023-12-11T05:18:27.743Z,95744.47
2023-12-11T05:20:57.512Z,95751.75
2023-12-11T05:23:25.850Z,95757.00
2023-12-11T05:25:55.608Z,95776.63
2023-12-11T05:28:23.812Z,95775.09
2023-12-11T05:30:52.277Z,95766.50
2023-12-11T05:33:20.666Z,95751.38
2023-12-11T05:35:48.999Z,95730.50
2023-12-11T05:38:18.689Z,95749.75
2023-12-11T05:40:47.852Z,95762.81
2023-12-11T05:43:16.340Z,95750.84
2023-12-11T05:45:44.788Z,95740.34
2023-12-11T05:48:13.253Z,95733.53
2023-12-11T05:50:41.844Z,95738.69
2023-12-11T05:53:10.284Z,95742.78
2023-12-11T05:55:40.079Z,95767.63
2023-12-11T05:58:08.286Z,95771.47
2023-12-11T06:00:36.656Z,95776.41
2023-12-11T06:03:04.905Z,95779.56
2023-12-11T06:05:33.159Z,95782.22
2023-12-11T06:08:01.846Z,95775.50
2023-12-11T06:10:30.901Z,95788.03
2023-12-11T06:13:00.888Z,95778.25
2023-12-11T06:15:29.249Z,95756.66
2023-12-11T06:17:57.544Z,95750.19
2023-12-11T06:20:25.928Z,95726.50
2023-12-11T06:22:54.120Z,95708.06
2023-12-11T06:25:22.973Z,95706.00
2023-12-11T06:27:52.983Z,95695.09
2023-12-11T06:30:23.899Z,95695.03
2023-12-11T06:32:52.227Z,95679.69
2023-12-11T06:35:20.452Z,95679.66
2023-12-11T06:37:49.059Z,95692.41
2023-12-11T06:40:17.693Z,95699.72
2023-12-11T06:42:47.041Z,95692.97
2023-12-11T06:45:16.054Z,95682.56
2023-12-11T06:47:45.818Z,95664.34
2023-12-11T06:50:14.629Z,95666.50
2023-12-11T06:52:43.130Z,95643.41
2023-12-11T06:55:11.498Z,95630.16
2023-12-11T06:57:40.234Z,95636.41
2023-12-11T07:00:11.567Z,95680.59
2023-12-11T07:02:41.042Z,95673.84
2023-12-11T07:05:11.740Z,95654.81
2023-12-11T07:07:40.366Z,95669.13
2023-12-11T07:10:09.369Z,95689.50
2023-12-11T07:12:42.020Z,95711.41
2023-12-11T07:15:11.149Z,95733.88
2023-12-11T07:17:39.869Z,95749.00
2023-12-11T07:20:13.004Z,95750.25
2023-12-11T07:22:41.449Z,95744.69
2023-12-11T07:25:10.612Z,95741.25
2023-12-11T07:27:39.067Z,95727.66
2023-12-11T07:30:08.920Z,95745.72
2023-12-11T07:32:37.288Z,95740.03
2023-12-11T07:35:09.457Z,95732.03
2023-12-11T07:37:42.603Z,95717.69
2023-12-11T07:40:12.495Z,95720.78
2023-12-11T07:42:41.164Z,95711.34
2023-12-11T07:45:10.556Z,95721.44
2023-12-11T07:47:39.040Z,95728.41
2023-12-11T07:50:08.738Z,95697.66
2023-12-11T07:52:38.717Z,95718.41
2023-12-11T07:55:08.041Z,95727.22
2023-12-11T07:57:37.359Z,95745.47
2023-12-11T08:00:06.989Z,95734.03
2023-12-11T08:02:37.533Z,95730.34
2023-12-11T08:05:06.748Z,95708.78
2023-12-11T08:07:35.590Z,95673.94
2023-12-11T08:10:06.869Z,95671.66
2023-12-11T08:12:35.489Z,95667.06
2023-12-11T08:15:04.438Z,95663.78
2023-12-11T08:17:33.158Z,95671.59
2023-12-11T08:20:01.816Z,95699.50
2023-12-11T08:22:30.291Z,95702.59
2023-12-11T08:24:58.706Z,95709.88
2023-12-11T08:27:29.008Z,95713.28
2023-12-11T08:29:57.613Z,95712.03
2023-12-11T08:32:26.138Z,95693.84
2023-12-11T08:34:54.698Z,95689.19
2023-12-11T08:37:23.218Z,95690.50
2023-12-11T08:39:51.681Z,95693.66
2023-12-11T08:42:20.098Z,95712.41
2023-12-11T08:44:50.004Z,95713.69
2023-12-11T08:47:18.418Z,95740.50
2023-12-11T08:49:47.043Z,95735.00
2023-12-11T08:52:15.644Z,95685.78
2023-12-11T08:54:44.183Z,95647.25
2023-12-11T08:57:12.626Z,95647.44
2023-12-11T08:59:41.200Z,95619.66
2023-12-11T09:02:11.374Z,95661.88
2023-12-11T09:04:39.795Z,95643.63
2023-12-11T09:07:11.171Z,95612.38
2023-12-11T09:09:40.271Z,95578.50
2023-12-11T09:12:19.285Z,95630.88
2023-12-11T09:14:59.602Z,95637.91
2023-12-11T09:17:30.648Z,95643.38
2023-12-11T09:19:59.717Z,95656.16
2023-12-11T09:22:28.269Z,95631.69
2023-12-11T09:24:56.813Z,95603.81
2023-12-11T09:27:25.474Z,95628.31
2023-12-11T09:29:53.926Z,95651.81
2023-12-11T09:32:22.404Z,95644.50
2023-12-11T09:34:53.019Z,95618.72
2023-12-11T09:37:21.621Z,95610.13
2023-12-11T09:39:50.981Z,95619.50
2023-12-11T09:42:19.740Z,95621.06
2023-12-11T09:44:50.686Z,95633.50
2023-12-11T09:47:24.305Z,95622.53
2023-12-11T09:49:54.516Z,95599.63
2023-12-11T09:52:23.460Z,95601.69
2023-12-11T09:54:51.935Z,95623.31
2023-12-11T09:57:20.665Z,95565.50
2023-12-11T09:59:51.593Z,95593.88
2023-12-11T10:02:20.764Z,95649.09
2023-12-11T10:05:09.250Z,95654.09
2023-12-11T10:07:38.775Z,95614.75
2023-12-11T10:10:23.477Z,95606.91
2023-12-11T10:12:52.346Z,95619.69
2023-12-11T10:15:25.457Z,95605.34
2023-12-11T10:18:04.914Z,95633.56
2023-12-11T10:20:36.344Z,95607.00
2023-12-11T10:23:16.507Z,95588.75
2023-12-11T10:25:47.565Z,95649.75
2023-12-11T10:28:18.214Z,95598.69
2023-12-11T10:30:55.046Z,95585.66
2023-12-11T10:33:25.995Z,95589.88
2023-12-11T10:36:10.510Z,95583.09
2023-12-11T10:38:38.900Z,95635.78
2023-12-11T10:41:08.150Z,95621.69
2023-12-11T10:43:56.544Z,95617.75
2023-12-11T10:46:33.225Z,95606.56
2023-12-11T10:49:02.307Z,95617.53
2023-12-11T10:51:35.535Z,95593.50
2023-12-11T10:54:03.839Z,95585.44
2023-12-11T10:56:32.706Z,95589.59
2023-12-11T10:59:01.743Z,95574.19
2023-12-11T11:01:30.507Z,95554.91
2023-12-11T11:03:59.208Z,95560.13
2023-12-11T11:06:30.678Z,95549.16
2023-12-11T11:09:06.675Z,95573.19
2023-12-11T11:11:39.952Z,95569.81
2023-12-11T11:14:35.400Z,95568.75
2023-12-11T11:17:03.914Z,95563.78
2023-12-11T11:19:32.392Z,95542.41
2023-12-11T11:22:31.682Z,95531.47
2023-12-11T11:25:38.575Z,95539.28
2023-12-11T11:28:08.118Z,95545.53
2023-12-11T11:30:50.158Z,95534.56
2023-12-11T11:33:18.566Z,95529.88
2023-12-11T11:35:51.494Z,95544.47
2023-12-11T11:38:21.421Z,95513.47
2023-12-11T11:40:52.894Z,95495.22
2023-12-11T11:43:21.607Z,95487.41
2023-12-11T11:45:57.125Z,95503.84
2023-12-11T11:48:43.436Z,95503.84
2023-12-11T11:51:12.105Z,95492.63
2023-12-11T11:53:42.487Z,95494.44
2023-12-11T11:56:13.138Z,95511.09
2023-12-11T11:58:41.537Z,95525.72
2023-12-11T12:01:10.043Z,95524.16
2023-12-11T12:03:45.314Z,95523.13
2023-12-11T12:06:17.095Z,95503.31
2023-12-11T12:08:45.654Z,95495.19
2023-12-11T12:11:16.626Z,95514.47
2023-12-11T12:13:45.126Z,95488.13
2023-12-11T12:16:13.597Z,95468.84
2023-12-11T12:18:51.738Z,95474.34
2023-12-11T12:21:20.323Z,95461.78
2023-12-11T12:23:48.671Z,95497.53
2023-12-11T12:26:18.842Z,95519.41
2023-12-11T12:28:47.338Z,95478.19
2023-12-11T12:31:15.909Z,95457.31
2023-12-11T12:33:44.656Z,95447.41
2023-12-11T12:36:13.443Z,95483.34
2023-12-11T12:38:42.654Z,95498.97
2023-12-11T12:41:13.586Z,95484.13
2023-12-11T12:43:43.637Z,95466.16
2023-12-11T12:46:12.014Z,95455.47
2023-12-11T12:48:40.464Z,95434.84
2023-12-11T12:51:10.654Z,95409.75
2023-12-11T12:53:48.391Z,95430.09
2023-12-11T12:56:19.324Z,95418.63
2023-12-11T12:58:55.288Z,95418.63
2023-12-11T13:01:23.814Z,95382.59
2023-12-11T13:03:52.349Z,95402.44
2023-12-11T13:06:27.672Z,95447.31
2023-12-11T13:08:56.069Z,95443.41
2023-12-11T13:11:24.497Z,95412.94
2023-12-11T13:13:57.700Z,95398.31
2023-12-11T13:16:26.203Z,95418.44
2023-12-11T13:18:54.863Z,95446.88
2023-12-11T13:21:23.228Z,95425.47
2023-12-11T13:23:51.624Z,95415.06
2023-12-11T13:26:20.005Z,95437.78
2023-12-11T13:28:48.312Z,95437.03
2023-12-11T13:31:18.144Z,95412.06
2023-12-11T13:33:46.640Z,95413.13
2023-12-11T13:36:19.097Z,95424.56
2023-12-11T13:38:47.843Z,95399.31
2023-12-11T13:41:16.217Z,95437.63
2023-12-11T13:43:44.537Z,95427.72
2023-12-11T13:46:13.070Z,95409.44
2023-12-11T13:48:43.358Z,95411.53
2023-12-11T13:51:12.336Z,95426.69
2023-12-11T13:53:41.226Z,95414.94
2023-12-11T13:56:10.481Z,95417.78
2023-12-11T13:58:38.770Z,95425.63
2023-12-11T14:01:07.374Z,95418.34
2023-12-11T14:03:35.878Z,95455.88
2023-12-11T14:06:06.371Z,95475.16
2023-12-11T14:08:34.737Z,95471.50
2023-12-11T14:11:03.109Z,95453.25
2023-12-11T14:13:31.500Z,95456.91
2023-12-11T14:16:00.025Z,95440.50
2023-12-11T14:18:31.476Z,95462.66
2023-12-11T14:21:03.013Z,95495.22
2023-12-11T14:23:33.024Z,95505.66
2023-12-11T14:26:01.460Z,95486.59
2023-12-11T14:28:29.832Z,95497.81
2023-12-11T14:30:58.373Z,95516.88
2023-12-11T14:33:26.851Z,95514.00
2023-12-11T14:35:55.329Z,95516.88
2023-12-11T14:38:23.669Z,95535.91
2023-12-11T14:40:53.536Z,95517.38
2023-12-11T14:43:22.109Z,95490.78
2023-12-11T14:45:50.642Z,95513.22
2023-12-11T14:48:19.442Z,95509.56
2023-12-11T14:50:48.128Z,95513.75
2023-12-11T14:53:16.853Z,95506.44
2023-12-11T14:55:45.734Z,95502.78
2023-12-11T14:58:15.725Z,95482.97
2023-12-11T15:00:44.272Z,95520.00
2023-12-11T15:03:12.610Z,95507.44
2023-12-11T15:05:40.926Z,95496.75
2023-12-11T15:08:09.263Z,95506.91
2023-12-11T15:10:38.475Z,95510.28
2023-12-11T15:13:07.787Z,95524.88
2023-12-11T15:15:38.136Z,95528.25
2023-12-11T15:18:08.112Z,95552.25
2023-12-11T15:20:36.792Z,95543.66
2023-12-11T15:23:06.824Z,95542.88
2023-12-11T15:25:35.939Z,95542.38
2023-12-11T15:28:05.010Z,95524.63
2023-12-11T15:30:33.413Z,95558.81
2023-12-11T15:33:03.614Z,95566.94
2023-12-11T15:35:32.037Z,95562.75
2023-12-11T15:38:00.524Z,95553.88
2023-12-11T15:40:29.300Z,95565.88
2023-12-11T15:42:57.956Z,95560.41
2023-12-11T15:45:26.929Z,95549.72
2023-12-11T15:48:01.436Z,95550.75
2023-12-11T15:50:33.561Z,95573.19
2023-12-11T15:53:02.139Z,95563.53
2023-12-11T15:55:30.536Z,95559.38
2023-12-11T15:57:59.013Z,95554.16
2023-12-11T16:00:27.612Z,95553.84
2023-12-11T16:02:56.136Z,95557.47
2023-12-11T16:05:24.576Z,95549.41
2023-12-11T16:07:55.489Z,95542.63
2023-12-11T16:10:23.841Z,95563.25
2023-12-11T16:12:52.300Z,95589.88
2023-12-11T16:15:21.178Z,95578.38
2023-12-11T16:17:49.607Z,95562.72
2023-12-11T16:20:18.053Z,95570.53
2023-12-11T16:22:46.480Z,95581.72
2023-12-11T16:25:16.660Z,95590.31
2023-12-11T16:27:45.049Z,95585.09
2023-12-11T16:30:14.736Z,95586.16
2023-12-11T16:32:43.808Z,95591.38
2023-12-11T16:35:12.155Z,95590.06
2023-12-11T16:37:40.390Z,95603.88
2023-12-11T16:40:10.073Z,95595.00
2023-12-11T16:42:39.950Z,95597.59
2023-12-11T16:45:11.800Z,95591.34
2023-12-11T16:47:45.216Z,95592.41
2023-12-11T16:50:13.639Z,95619.50
2023-12-11T16:52:42.121Z,95614.28
2023-12-11T16:55:10.664Z,95618.97
2023-12-11T16:57:40.323Z,95615.31
2023-12-11T17:00:11.253Z,95626.78
2023-12-11T17:02:39.622Z,95630.69
2023-12-11T17:05:08.581Z,95600.69
2023-12-11T17:07:36.873Z,95616.59
2023-12-11T17:10:05.488Z,95615.81
2023-12-11T17:12:34.063Z,95611.66
2023-12-11T17:15:04.717Z,95608.78
2023-12-11T17:17:33.149Z,95618.44
2023-12-11T17:20:01.694Z,95626.00
2023-12-11T17:22:30.155Z,95636.97
2023-12-11T17:24:59.329Z,95624.72
2023-12-11T17:27:27.643Z,95604.72
2023-12-11T17:29:57.350Z,95603.69
2023-12-11T17:32:28.450Z,95618.28
2023-12-11T17:34:57.103Z,95641.75
2023-12-11T17:37:25.758Z,95657.16
2023-12-11T17:39:54.861Z,95647.78
2023-12-11T17:42:23.655Z,95647.50
2023-12-11T17:44:51.926Z,95639.41
2023-12-11T17:47:20.176Z,95650.91
2023-12-11T17:49:50.372Z,95647.22
2023-12-11T17:52:18.569Z,95662.88
2023-12-11T17:54:50.301Z,95662.38
2023-12-11T17:57:18.705Z,95652.47
2023-12-11T17:59:46.849Z,95645.66
2023-12-11T18:02:15.059Z,95644.09
2023-12-11T18:04:43.482Z,95649.03
2023-12-11T18:07:13.419Z,95658.97
2023-12-11T18:09:41.844Z,95662.88
2023-12-11T18:12:10.937Z,95662.88
2023-12-11T18:14:39.148Z,95665.75
2023-12-11T18:17:07.367Z,95659.72
2023-12-11T18:19:35.786Z,95640.66
2023-12-11T18:22:06.269Z,95622.06
2023-12-11T18:24:37.378Z,95635.63
2023-12-11T18:27:05.820Z,95637.00
2023-12-11T18:29:34.089Z,95636.75
2023-12-11T18:32:02.403Z,95644.59
2023-12-11T18:34:39.822Z,95644.06
2023-12-11T18:37:16.016Z,95651.41
2023-12-11T18:39:45.953Z,95655.59
2023-12-11T18:42:14.243Z,95661.84
2023-12-11T18:44:44.043Z,95664.47
2023-12-11T18:47:12.206Z,95661.84
2023-12-11T18:49:42.858Z,95646.19
2023-12-11T18:52:13.472Z,95661.34
2023-12-11T18:54:41.734Z,95666.03
2023-12-11T18:57:13.307Z,95656.59
2023-12-11T18:59:41.496Z,95653.47
2023-12-11T19:02:09.805Z,95649.75
2023-12-11T19:04:38.205Z,95628.38
2023-12-11T19:07:07.230Z,95646.09
2023-12-11T19:09:35.405Z,95645.28
2023-12-11T19:12:04.184Z,95654.94
2023-12-11T19:14:33.850Z,95655.78
2023-12-11T19:17:02.363Z,95673.84
2023-12-11T19:19:30.743Z,95672.28
2023-12-11T19:21:59.989Z,95666.53
2023-12-11T19:24:30.019Z,95664.19
2023-12-11T19:26:58.377Z,95657.91
2023-12-11T19:29:26.692Z,95658.38
2023-12-11T19:31:56.500Z,95661.22
2023-12-11T19:34:24.998Z,95665.63
2023-12-11T19:36:53.393Z,95665.34
2023-12-11T19:39:21.582Z,95673.66
2023-12-11T19:41:49.936Z,95652.22
2023-12-11T19:44:18.582Z,95647.75
2023-12-11T19:46:47.233Z,95643.53
2023-12-11T19:49:18.235Z,95665.22
2023-12-11T19:51:46.947Z,95655.28
2023-12-11T19:54:15.571Z,95658.44
2023-12-11T19:56:44.739Z,95645.88
2023-12-11T19:59:13.930Z,95661.00
2023-12-11T20:01:42.234Z,95669.66
2023-12-11T20:04:10.728Z,95697.66
2023-12-11T20:06:41.176Z,95693.47
2023-12-11T20:09:09.404Z,95689.25
2023-12-11T20:11:37.655Z,95666.78
2023-12-11T20:14:06.012Z,95668.88
2023-12-11T20:16:34.289Z,95675.13
2023-12-11T20:19:02.726Z,95683.19
2023-12-11T20:21:31.174Z,95682.41
2023-12-11T20:24:00.987Z,95699.88
2023-12-11T20:26:29.223Z,95706.75
2023-12-11T20:28:57.409Z,95686.13
2023-12-11T20:31:26.674Z,95668.38
2023-12-11T20:33:54.977Z,95676.75
2023-12-11T20:36:23.458Z,95673.34
2023-12-11T20:38:51.725Z,95667.25
2023-12-11T20:41:22.747Z,95667.16
2023-12-11T20:43:51.772Z,95690.44
2023-12-11T20:46:24.963Z,95698.03
2023-12-11T20:48:54.691Z,95698.56
2023-12-11T20:51:24.172Z,95699.41
2023-12-11T20:53:53.374Z,95700.72
2023-12-11T20:56:24.143Z,95685.56
2023-12-11T20:58:53.210Z,95686.06
2023-12-11T21:01:29.736Z,95685.53
2023-12-11T21:03:59.094Z,95704.88
2023-12-11T21:06:28.150Z,95713.06
2023-12-11T21:08:57.284Z,95745.22
2023-12-11T21:11:27.468Z,95748.91
2023-12-11T21:13:55.880Z,95752.56
2023-12-11T21:16:24.310Z,95747.34
2023-12-11T21:18:53.264Z,95768.22
2023-12-11T21:21:22.850Z,95787.06
2023-12-11T21:23:51.981Z,95801.16
2023-12-11T21:26:22.389Z,95778.06
2023-12-11T21:28:53.465Z,95785.88
2023-12-11T21:31:24.030Z,95767.25
2023-12-11T21:33:53.481Z,95745.78
2023-12-11T21:36:22.643Z,95734.25
2023-12-11T21:38:51.326Z,95724.00
2023-12-11T21:41:19.808Z,95716.44
2023-12-11T21:44:01.649Z,95712.50
2023-12-11T21:46:30.074Z,95711.78
2023-12-11T21:49:02.588Z,95706.50
2023-12-11T21:51:33.930Z,95722.72
2023-12-11T21:54:02.536Z,95723.28
2023-12-11T21:56:31.714Z,95700.28
2023-12-11T21:59:01.497Z,95717.78
2023-12-11T22:01:30.235Z,95704.41
2023-12-11T22:03:58.830Z,95711.38
2023-12-11T22:06:28.620Z,95717.09
2023-12-11T22:08:57.010Z,95705.34
2023-12-11T22:11:25.514Z,95726.81
2023-12-11T22:13:54.080Z,95741.78
2023-12-11T22:16:24.076Z,95735.28
2023-12-11T22:18:52.594Z,95731.63
2023-12-11T22:21:24.680Z,95724.31
2023-12-11T22:23:54.064Z,95729.53
2023-12-11T22:26:22.779Z,95719.06
2023-12-11T22:28:51.359Z,95722.72
2023-12-11T22:31:31.357Z,95718.00
2023-12-11T22:34:00.039Z,95714.31
2023-12-11T22:36:29.589Z,95724.75
2023-12-11T22:38:58.210Z,95736.28
2023-12-11T22:41:27.094Z,95730.00
2023-12-11T22:43:55.710Z,95737.88
2023-12-11T22:46:24.942Z,95741.56
2023-12-11T22:48:55.186Z,95727.19
2023-12-11T22:51:24.292Z,95744.19
2023-12-11T22:53:53.074Z,95743.16
2023-12-11T22:56:21.606Z,95717.50
2023-12-11T22:58:52.866Z,95684.03
2023-12-11T23:01:24.526Z,95683.72
2023-12-11T23:03:57.691Z,95682.66
2023-12-11T23:06:28.500Z,95689.19
2023-12-11T23:08:57.691Z,95688.94
2023-12-11T23:11:30.872Z,95687.38
2023-12-11T23:13:59.764Z,95693.94
2023-12-11T23:16:35.804Z,95714.06
2023-12-11T23:19:19.615Z,95722.19
2023-12-11T23:21:52.327Z,95733.16
2023-12-11T23:24:23.909Z,95745.19
2023-12-11T23:26:58.428Z,95737.84
2023-12-11T23:29:30.487Z,95733.31
2023-12-11T23:32:07.540Z,95702.72
2023-12-11T23:34:45.033Z,95679.69
2023-12-11T23:37:27.269Z,95679.63
2023-12-11T23:39:56.516Z,95712.59
2023-12-11T23:42:29.013Z,95715.28
2023-12-11T23:45:06.071Z,95699.47
2023-12-11T23:47:36.803Z,95695.03
2023-12-11T23:50:09.166Z,95683.31
2023-12-11T23:52:40.307Z,95718.59
2023-12-11T23:55:14.282Z,95733.00
2023-12-11T23:57:46.081Z,95713.88
